sensor_id;sensor_type;location;lat;lon;timestamp;pressure;altitude;pressure_sealevel;temperature;humidity
32131;BME280;18639;50.716;7.086;2023-10-19T00:00:41;98409.47;;;11.25;100.00
32131;BME280;18639;50.716;7.086;2023-10-19T00:03:10;98381.56;;;11.11;100.00
32131;BME280;18639;50.716;7.086;2023-10-19T00:05:36;98394.47;;;11.29;100.00
32131;BME280;18639;50.716;7.086;2023-10-19T00:08:05;98398.22;;;11.34;100.00
32131;BME280;18639;50.716;7.086;2023-10-19T00:10:43;98387.13;;;11.16;100.00
32131;BME280;18639;50.716;7.086;2023-10-19T00:13:10;98370.56;;;11.27;100.00
32131;BME280;18639;50.716;7.086;2023-10-19T00:15:38;98398.56;;;11.39;100.00
32131;BME280;18639;50.716;7.086;2023-10-19T00:18:12;98398.72;;;11.38;100.00
32131;BME280;18639;50.716;7.086;2023-10-19T00:20:40;98364.72;;;11.25;100.00
32131;BME280;18639;50.716;7.086;2023-10-19T00:23:12;98389.53;;;11.44;100.00
32131;BME280;18639;50.716;7.086;2023-10-19T00:25:42;98371.63;;;11.42;100.00
32131;BME280;18639;50.716;7.086;2023-10-19T00:28:07;98363.03;;;11.42;100.00
32131;BME280;18639;50.716;7.086;2023-10-19T00:30:33;98351.53;;;11.36;100.00
32131;BME280;18639;50.716;7.086;2023-10-19T00:33:04;98350.88;;;11.34;100.00
32131;BME280;18639;50.716;7.086;2023-10-19T00:35:38;98338.41;;;11.29;100.00
32131;BME280;18639;50.716;7.086;2023-10-19T00:38:12;98364.31;;;11.37;100.00
32131;BME280;18639;50.716;7.086;2023-10-19T00:40:56;98351.69;;;11.34;100.00
32131;BME280;18639;50.716;7.086;2023-10-19T00:43:31;98330.41;;;11.15;100.00
32131;BME280;18639;50.716;7.086;2023-10-19T00:46:09;98353.41;;;11.26;100.00
32131;BME280;18639;50.716;7.086;2023-10-19T00:49:01;98369.13;;;11.32;100.00
32131;BME280;18639;50.716;7.086;2023-10-19T00:51:29;98362.94;;;11.25;100.00
32131;BME280;18639;50.716;7.086;2023-10-19T00:53:58;98356.81;;;11.26;100.00
32131;BME280;18639;50.716;7.086;2023-10-19T00:56:25;98345.50;;;11.27;100.00
32131;BME280;18639;50.716;7.086;2023-10-19T00:58:58;98340.94;;;11.21;100.00
32131;BME280;18639;50.716;7.086;2023-10-19T01:01:38;98366.91;;;11.37;100.00
32131;BME280;18639;50.716;7.086;2023-10-19T01:04:09;98375.63;;;11.36;100.00
32131;BME280;18639;50.716;7.086;2023-10-19T01:06:39;98369.38;;;11.21;100.00
32131;BME280;18639;50.716;7.086;2023-10-19T01:09:04;98390.94;;;11.30;100.00
32131;BME280;18639;50.716;7.086;2023-10-19T01:11:30;98373.22;;;11.17;100.00
32131;BME280;18639;50.716;7.086;2023-10-19T01:13:56;98360.88;;;11.11;100.00
32131;BME280;18639;50.716;7.086;2023-10-19T01:16:21;98369.19;;;11.15;100.00
32131;BME280;18639;50.716;7.086;2023-10-19T01:18:48;98372.75;;;11.22;100.00
32131;BME280;18639;50.716;7.086;2023-10-19T01:21:13;98367.59;;;11.22;100.00
32131;BME280;18639;50.716;7.086;2023-10-19T01:23:39;98347.97;;;11.11;100.00
32131;BME280;18639;50.716;7.086;2023-10-19T01:26:05;98377.78;;;11.23;100.00
32131;BME280;18639;50.716;7.086;2023-10-19T01:28:35;98384.28;;;11.27;100.00
32131;BME280;18639;50.716;7.086;2023-10-19T01:31:21;98380.09;;;11.26;100.00
32131;BME280;18639;50.716;7.086;2023-10-19T01:33:53;98378.13;;;11.28;100.00
32131;BME280;18639;50.716;7.086;2023-10-19T01:36:22;98367.59;;;11.22;100.00
32131;BME280;18639;50.716;7.086;2023-10-19T01:38:48;98370.69;;;11.25;100.00
32131;BME280;18639;50.716;7.086;2023-10-19T01:41:14;98382.78;;;11.43;100.00
32131;BME280;18639;50.716;7.086;2023-10-19T01:43:42;98363.97;;;11.32;100.00
32131;BME280;18639;50.716;7.086;2023-10-19T01:46:09;98359.59;;;11.33;100.00
32131;BME280;18639;50.716;7.086;2023-10-19T01:48:43;98366.28;;;11.44;100.00
32131;BME280;18639;50.716;7.086;2023-10-19T01:51:11;98368.09;;;11.51;100.00
32131;BME280;18639;50.716;7.086;2023-10-19T01:53:38;98363.75;;;11.52;100.00
32131;BME280;18639;50.716;7.086;2023-10-19T01:56:10;98356.13;;;11.50;100.00
32131;BME280;18639;50.716;7.086;2023-10-19T01:58:39;98338.84;;;11.51;100.00
32131;BME280;18639;50.716;7.086;2023-10-19T02:01:06;98336.56;;;11.48;100.00
32131;BME280;18639;50.716;7.086;2023-10-19T02:03:34;98334.63;;;11.50;100.00
32131;BME280;18639;50.716;7.086;2023-10-19T02:06:01;98343.06;;;11.60;100.00
32131;BME280;18639;50.716;7.086;2023-10-19T02:08:36;98331.56;;;11.54;100.00
32131;BME280;18639;50.716;7.086;2023-10-19T02:11:06;98329.66;;;11.56;100.00
32131;BME280;18639;50.716;7.086;2023-10-19T02:13:44;98326.59;;;11.61;100.00
32131;BME280;18639;50.716;7.086;2023-10-19T02:16:14;98291.59;;;11.40;100.00
32131;BME280;18639;50.716;7.086;2023-10-19T02:18:42;98336.22;;;11.76;100.00
32131;BME280;18639;50.716;7.086;2023-10-19T02:21:08;98329.28;;;11.77;100.00
32131;BME280;18639;50.716;7.086;2023-10-19T02:23:37;98268.13;;;11.34;100.00
32131;BME280;18639;50.716;7.086;2023-10-19T02:26:03;98315.59;;;11.59;100.00
32131;BME280;18639;50.716;7.086;2023-10-19T02:28:29;98334.09;;;11.72;100.00
32131;BME280;18639;50.716;7.086;2023-10-19T02:30:57;98327.28;;;11.71;100.00
32131;BME280;18639;50.716;7.086;2023-10-19T02:33:23;98292.75;;;11.46;100.00
32131;BME280;18639;50.716;7.086;2023-10-19T02:35:51;98336.09;;;11.86;100.00
32131;BME280;18639;50.716;7.086;2023-10-19T02:38:16;98338.69;;;11.86;100.00
32131;BME280;18639;50.716;7.086;2023-10-19T02:40:42;98311.84;;;11.87;100.00
32131;BME280;18639;50.716;7.086;2023-10-19T02:43:07;98322.72;;;11.99;100.00
32131;BME280;18639;50.716;7.086;2023-10-19T02:45:34;98317.88;;;12.04;100.00
32131;BME280;18639;50.716;7.086;2023-10-19T02:47:59;98336.66;;;12.14;100.00
32131;BME280;18639;50.716;7.086;2023-10-19T02:50:24;98323.56;;;12.15;100.00
32131;BME280;18639;50.716;7.086;2023-10-19T02:52:52;98276.56;;;11.86;100.00
32131;BME280;18639;50.716;7.086;2023-10-19T02:55:18;98325.84;;;12.18;100.00
32131;BME280;18639;50.716;7.086;2023-10-19T02:57:45;98313.88;;;12.17;100.00
32131;BME280;18639;50.716;7.086;2023-10-19T03:00:12;98318.41;;;12.23;100.00
32131;BME280;18639;50.716;7.086;2023-10-19T03:02:40;98312.88;;;12.18;100.00
32131;BME280;18639;50.716;7.086;2023-10-19T03:05:06;98318.44;;;12.32;100.00
32131;BME280;18639;50.716;7.086;2023-10-19T03:07:43;98300.63;;;12.37;100.00
32131;BME280;18639;50.716;7.086;2023-10-19T03:10:10;98304.69;;;12.47;100.00
32131;BME280;18639;50.716;7.086;2023-10-19T03:12:50;98283.13;;;12.31;100.00
32131;BME280;18639;50.716;7.086;2023-10-19T03:15:16;98286.53;;;12.31;100.00
32131;BME280;18639;50.716;7.086;2023-10-19T03:17:42;98287.97;;;12.26;100.00
32131;BME280;18639;50.716;7.086;2023-10-19T03:20:08;98274.88;;;12.19;100.00
32131;BME280;18639;50.716;7.086;2023-10-19T03:22:36;98284.09;;;12.21;100.00
32131;BME280;18639;50.716;7.086;2023-10-19T03:25:04;98243.63;;;11.96;100.00
32131;BME280;18639;50.716;7.086;2023-10-19T03:27:48;98281.19;;;12.16;100.00
32131;BME280;18639;50.716;7.086;2023-10-19T03:30:14;98287.81;;;12.11;100.00
32131;BME280;18639;50.716;7.086;2023-10-19T03:32:41;98287.47;;;12.06;100.00
32131;BME280;18639;50.716;7.086;2023-10-19T03:35:06;98272.25;;;11.95;100.00
32131;BME280;18639;50.716;7.086;2023-10-19T03:37:32;98273.34;;;11.92;100.00
32131;BME280;18639;50.716;7.086;2023-10-19T03:40:00;98283.41;;;11.95;100.00
32131;BME280;18639;50.716;7.086;2023-10-19T03:42:30;98251.28;;;11.72;100.00
32131;BME280;18639;50.716;7.086;2023-10-19T03:45:05;98274.16;;;11.85;100.00
32131;BME280;18639;50.716;7.086;2023-10-19T03:47:38;98266.06;;;11.88;100.00
32131;BME280;18639;50.716;7.086;2023-10-19T03:50:04;98273.34;;;11.92;100.00
32131;BME280;18639;50.716;7.086;2023-10-19T03:52:32;98267.22;;;11.85;100.00
32131;BME280;18639;50.716;7.086;2023-10-19T03:55:02;98276.75;;;11.85;100.00
32131;BME280;18639;50.716;7.086;2023-10-19T03:57:30;98264.44;;;11.87;100.00
32131;BME280;18639;50.716;7.086;2023-10-19T03:59:56;98239.16;;;11.72;100.00
32131;BME280;18639;50.716;7.086;2023-10-19T04:02:22;98248.75;;;11.80;100.00
32131;BME280;18639;50.716;7.086;2023-10-19T04:04:49;98243.59;;;11.80;100.00
32131;BME280;18639;50.716;7.086;2023-10-19T04:07:18;98264.00;;;11.99;100.00
32131;BME280;18639;50.716;7.086;2023-10-19T04:09:55;98251.69;;;11.93;100.00
32131;BME280;18639;50.716;7.086;2023-10-19T04:12:39;98262.72;;;12.11;100.00
32131;BME280;18639;50.716;7.086;2023-10-19T04:15:08;98239.09;;;12.06;100.00
32131;BME280;18639;50.716;7.086;2023-10-19T04:17:39;98262.72;;;12.19;100.00
32131;BME280;18639;50.716;7.086;2023-10-19T04:20:08;98244.59;;;12.11;100.00
32131;BME280;18639;50.716;7.086;2023-10-19T04:22:43;98261.44;;;12.23;100.00
32131;BME280;18639;50.716;7.086;2023-10-19T04:25:09;98254.97;;;12.19;100.00
32131;BME280;18639;50.716;7.086;2023-10-19T04:27:38;98267.63;;;12.39;100.00
32131;BME280;18639;50.716;7.086;2023-10-19T04:30:03;98260.16;;;12.44;100.00
32131;BME280;18639;50.716;7.086;2023-10-19T04:32:29;98246.41;;;12.43;100.00
32131;BME280;18639;50.716;7.086;2023-10-19T04:34:56;98221.63;;;12.41;100.00
32131;BME280;18639;50.716;7.086;2023-10-19T04:37:23;98240.72;;;12.56;100.00
32131;BME280;18639;50.716;7.086;2023-10-19T04:39:49;98231.03;;;12.50;100.00
32131;BME280;18639;50.716;7.086;2023-10-19T04:42:15;98240.91;;;12.54;100.00
32131;BME280;18639;50.716;7.086;2023-10-19T04:44:40;98249.47;;;12.55;100.00
32131;BME280;18639;50.716;7.086;2023-10-19T04:47:05;98236.69;;;12.53;100.00
32131;BME280;18639;50.716;7.086;2023-10-19T04:49:31;98243.47;;;12.54;100.00
32131;BME280;18639;50.716;7.086;2023-10-19T04:51:56;98196.88;;;12.22;100.00
32131;BME280;18639;50.716;7.086;2023-10-19T04:54:21;98234.25;;;12.52;100.00
32131;BME280;18639;50.716;7.086;2023-10-19T04:56:46;98208.66;;;12.41;100.00
32131;BME280;18639;50.716;7.086;2023-10-19T04:59:13;98216.59;;;12.47;100.00
32131;BME280;18639;50.716;7.086;2023-10-19T05:01:38;98209.81;;;12.38;100.00
32131;BME280;18639;50.716;7.086;2023-10-19T05:04:05;98231.97;;;12.57;100.00
32131;BME280;18639;50.716;7.086;2023-10-19T05:06:30;98234.56;;;12.57;100.00
32131;BME280;18639;50.716;7.086;2023-10-19T05:08:56;98220.78;;;12.56;100.00
32131;BME280;18639;50.716;7.086;2023-10-19T05:11:22;98230.50;;;12.62;100.00
32131;BME280;18639;50.716;7.086;2023-10-19T05:13:47;98235.53;;;12.64;100.00
32131;BME280;18639;50.716;7.086;2023-10-19T05:16:12;98219.16;;;12.55;100.00
32131;BME280;18639;50.716;7.086;2023-10-19T05:18:38;98224.19;;;12.65;100.00
32131;BME280;18639;50.716;7.086;2023-10-19T05:21:03;98222.72;;;12.62;100.00
32131;BME280;18639;50.716;7.086;2023-10-19T05:23:30;98235.66;;;12.79;100.00
32131;BME280;18639;50.716;7.086;2023-10-19T05:26:04;98223.22;;;12.74;100.00
32131;BME280;18639;50.716;7.086;2023-10-19T05:28:30;98235.97;;;12.84;100.00
32131;BME280;18639;50.716;7.086;2023-10-19T05:30:55;98232.91;;;12.80;100.00
32131;BME280;18639;50.716;7.086;2023-10-19T05:33:20;98226.28;;;12.78;100.00
32131;BME280;18639;50.716;7.086;2023-10-19T05:35:50;98226.78;;;12.81;100.00
32131;BME280;18639;50.716;7.086;2023-10-19T05:38:18;98198.44;;;12.63;100.00
32131;BME280;18639;50.716;7.086;2023-10-19T05:40:50;98217.69;;;12.77;100.00
32131;BME280;18639;50.716;7.086;2023-10-19T05:43:17;98207.66;;;12.66;100.00
32131;BME280;18639;50.716;7.086;2023-10-19T05:45:42;98219.00;;;12.73;100.00
32131;BME280;18639;50.716;7.086;2023-10-19T05:48:08;98219.81;;;12.82;100.00
32131;BME280;18639;50.716;7.086;2023-10-19T05:50:34;98203.16;;;12.60;100.00
32131;BME280;18639;50.716;7.086;2023-10-19T05:52:59;98247.63;;;12.96;100.00
32131;BME280;18639;50.716;7.086;2023-10-19T05:55:25;98178.25;;;12.43;100.00
32131;BME280;18639;50.716;7.086;2023-10-19T05:57:50;98259.13;;;12.93;100.00
32131;BME280;18639;50.716;7.086;2023-10-19T06:00:16;98246.97;;;12.94;100.00
32131;BME280;18639;50.716;7.086;2023-10-19T06:02:44;98233.53;;;12.82;100.00
32131;BME280;18639;50.716;7.086;2023-10-19T06:05:10;98213.16;;;12.87;100.00
32131;BME280;18639;50.716;7.086;2023-10-19T06:07:35;98224.13;;;12.89;100.00
32131;BME280;18639;50.716;7.086;2023-10-19T06:10:01;98239.19;;;12.94;100.00
32131;BME280;18639;50.716;7.086;2023-10-19T06:12:30;98238.38;;;12.93;100.00
32131;BME280;18639;50.716;7.086;2023-10-19T06:14:56;98259.44;;;13.06;100.00
32131;BME280;18639;50.716;7.086;2023-10-19T06:17:21;98231.06;;;13.05;100.00
32131;BME280;18639;50.716;7.086;2023-10-19T06:19:46;98257.19;;;13.12;100.00
32131;BME280;18639;50.716;7.086;2023-10-19T06:22:12;98270.44;;;13.17;100.00
32131;BME280;18639;50.716;7.086;2023-10-19T06:24:37;98246.16;;;13.01;100.00
32131;BME280;18639;50.716;7.086;2023-10-19T06:27:02;98218.00;;;12.90;100.00
32131;BME280;18639;50.716;7.086;2023-10-19T06:29:29;98235.78;;;13.01;100.00
32131;BME280;18639;50.716;7.086;2023-10-19T06:31:54;98253.75;;;13.19;100.00
32131;BME280;18639;50.716;7.086;2023-10-19T06:34:20;98212.81;;;12.90;100.00
32131;BME280;18639;50.716;7.086;2023-10-19T06:36:45;98249.06;;;13.15;100.00
32131;BME280;18639;50.716;7.086;2023-10-19T06:39:11;98253.91;;;13.18;100.00
32131;BME280;18639;50.716;7.086;2023-10-19T06:41:39;98252.28;;;13.25;100.00
32131;BME280;18639;50.716;7.086;2023-10-19T06:44:04;98260.38;;;13.30;100.00
32131;BME280;18639;50.716;7.086;2023-10-19T06:46:31;98275.28;;;13.28;100.00
32131;BME280;18639;50.716;7.086;2023-10-19T06:48:56;98255.84;;;13.16;100.00
32131;BME280;18639;50.716;7.086;2023-10-19T06:51:25;98261.03;;;13.24;100.00
32131;BME280;18639;50.716;7.086;2023-10-19T06:53:52;98260.72;;;13.19;100.00
32131;BME280;18639;50.716;7.086;2023-10-19T06:56:17;98255.84;;;13.16;100.00
32131;BME280;18639;50.716;7.086;2023-10-19T06:58:42;98277.88;;;13.28;100.00
32131;BME280;18639;50.716;7.086;2023-10-19T07:01:08;98252.47;;;13.15;100.00
32131;BME280;18639;50.716;7.086;2023-10-19T07:03:33;98263.63;;;13.24;100.00
32131;BME280;18639;50.716;7.086;2023-10-19T07:05:59;98266.53;;;13.29;100.00
32131;BME280;18639;50.716;7.086;2023-10-19T07:08:25;98287.56;;;13.42;100.00
32131;BME280;18639;50.716;7.086;2023-10-19T07:10:52;98283.66;;;13.46;100.00
32131;BME280;18639;50.716;7.086;2023-10-19T07:13:19;98288.66;;;13.47;100.00
32131;BME280;18639;50.716;7.086;2023-10-19T07:15:46;98272.34;;;13.39;100.00
32131;BME280;18639;50.716;7.086;2023-10-19T07:18:12;98275.53;;;13.49;100.00
32131;BME280;18639;50.716;7.086;2023-10-19T07:20:37;98252.25;;;13.33;100.00
32131;BME280;18639;50.716;7.086;2023-10-19T07:23:04;98269.75;;;13.39;100.00
32131;BME280;18639;50.716;7.086;2023-10-19T07:25:35;98276.66;;;13.46;100.00
32131;BME280;18639;50.716;7.086;2023-10-19T07:28:11;98299.84;;;13.56;100.00
32131;BME280;18639;50.716;7.086;2023-10-19T07:30:38;98284.44;;;13.46;100.00
32131;BME280;18639;50.716;7.086;2023-10-19T07:33:04;98269.44;;;13.34;100.00
32131;BME280;18639;50.716;7.086;2023-10-19T07:35:34;98295.28;;;13.58;100.00
32131;BME280;18639;50.716;7.086;2023-10-19T07:38:00;98292.38;;;13.53;100.00
32131;BME280;18639;50.716;7.086;2023-10-19T07:40:26;98290.44;;;13.55;100.00
32131;BME280;18639;50.716;7.086;2023-10-19T07:42:53;98270.00;;;13.52;100.00
32131;BME280;18639;50.716;7.086;2023-10-19T07:45:20;98292.97;;;13.63;100.00
32131;BME280;18639;50.716;7.086;2023-10-19T07:47:45;98290.38;;;13.63;100.00
32131;BME280;18639;50.716;7.086;2023-10-19T07:50:12;98296.47;;;13.78;100.00
32131;BME280;18639;50.716;7.086;2023-10-19T07:52:49;98271.53;;;13.69;100.00
32131;BME280;18639;50.716;7.086;2023-10-19T07:55:15;98291.63;;;13.83;100.00
32131;BME280;18639;50.716;7.086;2023-10-19T07:57:41;98281.63;;;13.95;100.00
32131;BME280;18639;50.716;7.086;2023-10-19T08:00:08;98281.63;;;13.95;100.00
32131;BME280;18639;50.716;7.086;2023-10-19T08:02:34;98260.03;;;13.95;100.00
32131;BME280;18639;50.716;7.086;2023-10-19T08:05:07;98244.81;;;13.91;100.00
32131;BME280;18639;50.716;7.086;2023-10-19T08:07:33;98263.19;;;14.13;100.00
32131;BME280;18639;50.716;7.086;2023-10-19T08:10:00;98262.13;;;14.22;100.00
32131;BME280;18639;50.716;7.086;2023-10-19T08:12:26;98236.84;;;14.16;100.00
32131;BME280;18639;50.716;7.086;2023-10-19T08:14:54;98239.84;;;14.27;100.00
32131;BME280;18639;50.716;7.086;2023-10-19T08:17:20;98221.38;;;14.22;100.00
32131;BME280;18639;50.716;7.086;2023-10-19T08:19:46;98243.13;;;14.52;100.00
32131;BME280;18639;50.716;7.086;2023-10-19T08:22:11;98242.69;;;14.63;100.00
32131;BME280;18639;50.716;7.086;2023-10-19T08:24:40;98236.44;;;14.72;100.00
32131;BME280;18639;50.716;7.086;2023-10-19T08:27:08;98237.41;;;14.86;100.00
32131;BME280;18639;50.716;7.086;2023-10-19T08:29:39;98238.06;;;15.03;100.00
32131;BME280;18639;50.716;7.086;2023-10-19T08:32:04;98252.84;;;15.46;100.00
32131;BME280;18639;50.716;7.086;2023-10-19T08:34:37;98249.69;;;15.80;100.00
32131;BME280;18639;50.716;7.086;2023-10-19T08:37:04;98232.28;;;16.45;100.00
32131;BME280;18639;50.716;7.086;2023-10-19T08:39:32;98230.84;;;17.32;100.00
32131;BME280;18639;50.716;7.086;2023-10-19T08:42:06;98215.41;;;17.91;100.00
32131;BME280;18639;50.716;7.086;2023-10-19T08:44:32;98223.91;;;18.59;100.00
32131;BME280;18639;50.716;7.086;2023-10-19T08:46:57;98206.94;;;19.14;100.00
32131;BME280;18639;50.716;7.086;2023-10-19T08:49:24;98229.34;;;19.61;100.00
32131;BME280;18639;50.716;7.086;2023-10-19T08:51:51;98206.19;;;19.58;100.00
32131;BME280;18639;50.716;7.086;2023-10-19T08:54:17;98209.47;;;19.34;100.00
32131;BME280;18639;50.716;7.086;2023-10-19T08:56:43;98208.53;;;19.22;100.00
32131;BME280;18639;50.716;7.086;2023-10-19T08:59:09;98194.53;;;18.70;100.00
32131;BME280;18639;50.716;7.086;2023-10-19T09:01:36;98204.19;;;18.50;100.00
32131;BME280;18639;50.716;7.086;2023-10-19T09:04:01;98202.56;;;18.09;100.00
32131;BME280;18639;50.716;7.086;2023-10-19T09:06:27;98196.28;;;17.84;100.00
32131;BME280;18639;50.716;7.086;2023-10-19T09:08:54;98184.31;;;17.49;100.00
32131;BME280;18639;50.716;7.086;2023-10-19T09:11:20;98201.53;;;17.37;100.00
32131;BME280;18639;50.716;7.086;2023-10-19T09:13:47;98184.97;;;17.16;100.00
32131;BME280;18639;50.716;7.086;2023-10-19T09:16:16;98172.88;;;17.02;100.00
32131;BME280;18639;50.716;7.086;2023-10-19T09:18:42;98184.94;;;17.03;100.00
32131;BME280;18639;50.716;7.086;2023-10-19T09:21:08;98156.31;;;16.82;100.00
32131;BME280;18639;50.716;7.086;2023-10-19T09:23:37;98167.81;;;16.94;100.00
32131;BME280;18639;50.716;7.086;2023-10-19T09:26:03;98140.84;;;16.80;100.00
32131;BME280;18639;50.716;7.086;2023-10-19T09:28:31;98172.47;;;17.05;100.00
32131;BME280;18639;50.716;7.086;2023-10-19T09:30:59;98151.13;;;16.89;100.00
32131;BME280;18639;50.716;7.086;2023-10-19T09:33:26;98175.31;;;17.10;100.00
32131;BME280;18639;50.716;7.086;2023-10-19T09:35:52;98143.19;;;17.03;100.00
32131;BME280;18639;50.716;7.086;2023-10-19T09:38:19;98156.50;;;17.21;100.00
32131;BME280;18639;50.716;7.086;2023-10-19T09:40:52;98144.97;;;17.57;100.00
32131;BME280;18639;50.716;7.086;2023-10-19T09:43:24;98166.78;;;18.43;100.00
32131;BME280;18639;50.716;7.086;2023-10-19T09:45:57;98164.59;;;19.24;100.00
32131;BME280;18639;50.716;7.086;2023-10-19T09:48:25;98168.28;;;19.92;100.00
32131;BME280;18639;50.716;7.086;2023-10-19T09:50:53;98157.34;;;20.02;100.00
32131;BME280;18639;50.716;7.086;2023-10-19T09:53:22;98161.56;;;20.03;100.00
32131;BME280;18639;50.716;7.086;2023-10-19T09:55:50;98157.81;;;20.17;100.00
32131;BME280;18639;50.716;7.086;2023-10-19T09:58:17;98173.66;;;20.35;100.00
32131;BME280;18639;50.716;7.086;2023-10-19T10:00:45;98171.19;;;20.40;100.00
32131;BME280;18639;50.716;7.086;2023-10-19T10:03:45;98184.69;;;20.62;100.00
32131;BME280;18639;50.716;7.086;2023-10-19T10:06:12;98178.25;;;21.01;100.00
32131;BME280;18639;50.716;7.086;2023-10-19T10:08:40;98164.41;;;20.94;100.00
32131;BME280;18639;50.716;7.086;2023-10-19T10:11:33;98167.78;;;21.19;100.00
32131;BME280;18639;50.716;7.086;2023-10-19T10:13:59;98150.38;;;21.00;100.00
32131;BME280;18639;50.716;7.086;2023-10-19T10:16:26;98163.88;;;20.85;100.00
32131;BME280;18639;50.716;7.086;2023-10-19T10:18:57;98168.81;;;20.75;100.00
32131;BME280;18639;50.716;7.086;2023-10-19T10:21:26;98171.25;;;20.52;100.00
32131;BME280;18639;50.716;7.086;2023-10-19T10:23:56;98167.19;;;20.06;100.00
32131;BME280;18639;50.716;7.086;2023-10-19T10:26:27;98166.88;;;19.58;100.00
32131;BME280;18639;50.716;7.086;2023-10-19T10:31:35;98159.03;;;19.01;100.00
32131;BME280;18639;50.716;7.086;2023-10-19T10:34:12;98145.06;;;18.56;100.00
32131;BME280;18639;50.716;7.086;2023-10-19T10:37:04;98162.56;;;18.42;100.00
32131;BME280;18639;50.716;7.086;2023-10-19T10:39:31;98161.53;;;18.17;100.00
32131;BME280;18639;50.716;7.086;2023-10-19T10:41:57;98145.84;;;17.90;100.00
32131;BME280;18639;50.716;7.086;2023-10-19T10:44:47;98152.88;;;17.83;100.00
32131;BME280;18639;50.716;7.086;2023-10-19T10:47:20;98152.63;;;17.65;100.00
32131;BME280;18639;50.716;7.086;2023-10-19T10:49:51;98146.34;;;17.53;100.00
32131;BME280;18639;50.716;7.086;2023-10-19T10:55:07;98147.88;;;17.27;100.00
32131;BME280;18639;50.716;7.086;2023-10-19T10:57:33;98151.06;;;17.16;100.00
32131;BME280;18639;50.716;7.086;2023-10-19T11:00:04;98132.31;;;16.93;100.00
32131;BME280;18639;50.716;7.086;2023-10-19T11:02:31;98151.38;;;17.00;100.00
32131;BME280;18639;50.716;7.086;2023-10-19T11:04:57;98151.75;;;16.91;100.00
32131;BME280;18639;50.716;7.086;2023-10-19T11:07:23;98126.16;;;16.73;100.00
32131;BME280;18639;50.716;7.086;2023-10-19T11:09:49;98140.03;;;16.80;100.00
32131;BME280;18639;50.716;7.086;2023-10-19T11:12:15;98154.09;;;16.79;100.00
32131;BME280;18639;50.716;7.086;2023-10-19T11:14:56;98141.66;;;16.81;100.00
32131;BME280;18639;50.716;7.086;2023-10-19T11:17:24;98116.16;;;16.76;100.00
32131;BME280;18639;50.716;7.086;2023-10-19T11:19:54;98122.41;;;16.82;100.00
32131;BME280;18639;50.716;7.086;2023-10-19T11:22:21;98107.91;;;16.73;100.00
32131;BME280;18639;50.716;7.086;2023-10-19T11:24:46;98090.81;;;16.64;100.00
32131;BME280;18639;50.716;7.086;2023-10-19T11:27:11;98104.88;;;16.69;100.00
32131;BME280;18639;50.716;7.086;2023-10-19T11:29:37;98068.59;;;16.47;100.00
32131;BME280;18639;50.716;7.086;2023-10-19T11:32:02;98093.81;;;16.61;100.00
32131;BME280;18639;50.716;7.086;2023-10-19T11:34:28;98108.91;;;16.72;100.00
32131;BME280;18639;50.716;7.086;2023-10-19T11:36:56;98107.31;;;16.71;100.00
32131;BME280;18639;50.716;7.086;2023-10-19T11:39:22;98086.78;;;16.61;100.00
32131;BME280;18639;50.716;7.086;2023-10-19T11:41:49;98081.50;;;16.55;100.00
32131;BME280;18639;50.716;7.086;2023-10-19T11:44:14;98097.22;;;16.61;100.00
32131;BME280;18639;50.716;7.086;2023-10-19T11:46:39;98083.72;;;16.58;100.00
32131;BME280;18639;50.716;7.086;2023-10-19T11:49:05;98023.56;;;16.18;100.00
32131;BME280;18639;50.716;7.086;2023-10-19T11:51:30;98038.78;;;16.21;100.00
32131;BME280;18639;50.716;7.086;2023-10-19T11:53:56;98093.06;;;16.46;100.00
32131;BME280;18639;50.716;7.086;2023-10-19T11:56:22;98084.38;;;16.32;100.00
32131;BME280;18639;50.716;7.086;2023-10-19T11:58:47;98098.28;;;16.46;100.00
32131;BME280;18639;50.716;7.086;2023-10-19T12:01:12;98101.16;;;16.51;100.00
32131;BME280;18639;50.716;7.086;2023-10-19T12:03:41;98116.16;;;16.49;100.00
32131;BME280;18639;50.716;7.086;2023-10-19T12:06:09;98104.31;;;16.46;100.00
32131;BME280;18639;50.716;7.086;2023-10-19T12:08:36;98088.00;;;16.37;100.00
32131;BME280;18639;50.716;7.086;2023-10-19T12:11:02;98105.16;;;16.53;100.00
32131;BME280;18639;50.716;7.086;2023-10-19T12:13:29;98114.78;;;16.53;100.00
32131;BME280;18639;50.716;7.086;2023-10-19T12:15:54;98090.63;;;16.37;100.00
32131;BME280;18639;50.716;7.086;2023-10-19T12:18:20;98117.38;;;16.53;100.00
32131;BME280;18639;50.716;7.086;2023-10-19T12:20:46;98104.28;;;16.39;100.00
32131;BME280;18639;50.716;7.086;2023-10-19T12:23:12;98117.78;;;16.50;100.00
32131;BME280;18639;50.716;7.086;2023-10-19T12:25:38;98086.16;;;16.31;100.00
32131;BME280;18639;50.716;7.086;2023-10-19T12:28:03;98092.25;;;16.38;100.00
32131;BME280;18639;50.716;7.086;2023-10-19T12:30:29;98120.06;;;16.59;100.00
32131;BME280;18639;50.716;7.086;2023-10-19T12:33:02;98122.00;;;16.51;100.00
32131;BME280;18639;50.716;7.086;2023-10-19T12:35:33;98107.94;;;16.45;100.00
32131;BME280;18639;50.716;7.086;2023-10-19T12:38:16;98115.13;;;16.43;100.00
32131;BME280;18639;50.716;7.086;2023-10-19T12:40:43;98111.47;;;16.37;100.00
32131;BME280;18639;50.716;7.086;2023-10-19T12:43:09;98120.72;;;16.40;100.00
32131;BME280;18639;50.716;7.086;2023-10-19T12:45:36;98122.31;;;16.34;100.00
32131;BME280;18639;50.716;7.086;2023-10-19T12:48:03;98060.84;;;15.91;100.00
32131;BME280;18639;50.716;7.086;2023-10-19T12:50:29;98131.28;;;16.32;100.00
32131;BME280;18639;50.716;7.086;2023-10-19T12:52:55;98119.41;;;16.23;100.00
32131;BME280;18639;50.716;7.086;2023-10-19T12:55:21;98120.06;;;16.31;100.00
32131;BME280;18639;50.716;7.086;2023-10-19T12:57:46;98097.69;;;16.16;100.00
32131;BME280;18639;50.716;7.086;2023-10-19T13:00:12;98077.13;;;15.99;100.00